Time;durP1;ratioP1;P1;durP2;ratioP2;P2;SDS_P1;SDS_P2;PMS_P1;PMS_P2;Temp;Humidity;BMP_temperature;BMP_pressure;BME280_temperature;BME280_humidity;BME280_pressure;Samples;Min_cycle;Max_cycle;Signal;HPM_P1;HPM_P2
2023/03/08 00:01:43;;;;;;;18.80;12.75;;;;;;;4.23;70.09;98762.03;5025789;28;20410;-59
2023/03/08 00:04:10;;;;;;;16.52;12.82;;;;;;;4.30;70.15;98758.84;5028941;28;20045;-60
2023/03/08 00:06:38;;;;;;;19.42;13.32;;;;;;;4.22;70.03;98768.69;5029592;28;20049;-60
2023/03/08 00:09:05;;;;;;;18.50;12.75;;;;;;;4.28;70.32;98772.13;5028913;28;20049;-61
2023/03/08 00:11:32;;;;;;;18.00;13.30;;;;;;;4.23;69.97;98766.75;5029442;28;20060;-60
2023/03/08 00:14:02;;;;;;;19.15;13.68;;;;;;;4.29;69.76;98776.53;5028463;28;20068;-60
2023/03/08 00:16:29;;;;;;;18.52;12.32;;;;;;;4.23;70.42;98766.75;5029744;28;20061;-60
2023/03/08 00:18:56;;;;;;;18.38;13.60;;;;;;;4.32;70.34;98764.84;5029687;28;20060;-60
2023/03/08 00:21:24;;;;;;;19.90;13.55;;;;;;;4.35;70.04;98769.75;5029378;28;20510;-60
2023/03/08 00:23:52;;;;;;;19.10;13.77;;;;;;;4.43;70.43;98760.72;5028130;28;20049;-60
2023/03/08 00:26:20;;;;;;;18.58;13.13;;;;;;;4.50;70.70;98768.53;5029561;28;20057;-60
2023/03/08 00:28:47;;;;;;;18.67;13.18;;;;;;;4.53;70.85;98778.13;5029625;28;20403;-59
2023/03/08 00:31:16;;;;;;;17.58;12.93;;;;;;;4.52;71.16;98771.78;5029655;28;20050;-60
2023/03/08 00:33:43;;;;;;;20.75;14.55;;;;;;;4.53;70.15;98769.84;5029648;28;20506;-59
2023/03/08 00:36:14;;;;;;;18.73;14.30;;;;;;;4.56;70.29;98766.47;5029168;28;20056;-60
2023/03/08 00:38:41;;;;;;;22.40;15.15;;;;;;;4.59;70.96;98771.34;5028777;28;20475;-60
2023/03/08 00:41:09;;;;;;;18.38;14.25;;;;;;;4.55;69.96;98756.56;5032375;28;20058;-60
2023/03/08 00:43:37;;;;;;;20.20;13.07;;;;;;;4.59;70.92;98765.81;5032828;28;20045;-60
2023/03/08 00:46:04;;;;;;;17.83;12.25;;;;;;;4.50;69.27;98760.25;5032676;28;20061;-59
2023/03/08 00:48:33;;;;;;;18.80;14.15;;;;;;;4.50;69.68;98762.22;5032337;28;20050;-59
2023/03/08 00:51:00;;;;;;;17.27;11.95;;;;;;;4.43;69.75;98763.47;5032283;28;20511;-59
2023/03/08 00:53:28;;;;;;;15.38;12.15;;;;;;;4.41;70.37;98756.63;5032343;27;20057;-60
2023/03/08 00:55:57;;;;;;;18.15;13.32;;;;;;;4.39;69.47;98754.22;5032724;28;20050;-59
2023/03/08 00:58:25;;;;;;;21.02;13.48;;;;;;;4.31;70.76;98766.00;5032754;28;20057;-59
2023/03/08 01:00:53;;;;;;;19.08;13.50;;;;;;;4.43;71.14;98769.00;5032022;28;20583;-60
2023/03/08 01:03:21;;;;;;;15.93;11.52;;;;;;;4.46;71.20;98760.06;5032723;28;20049;-59
2023/03/08 01:05:52;;;;;;;15.70;12.55;;;;;;;4.41;70.42;98754.72;5032796;28;20049;-59
2023/03/08 01:08:21;;;;;;;17.73;12.43;;;;;;;4.42;70.90;98761.84;5031125;27;20050;-59
2023/03/08 01:10:48;;;;;;;18.50;13.18;;;;;;;4.40;69.52;98755.81;5032247;28;20054;-59
2023/03/08 01:13:15;;;;;;;18.20;12.57;;;;;;;4.30;69.62;98752.53;5032273;28;20476;-59
2023/03/08 01:15:43;;;;;;;17.27;12.25;;;;;;;4.32;70.61;98748.31;5032558;28;20131;-59
2023/03/08 01:18:11;;;;;;;15.13;11.00;;;;;;;4.38;70.02;98744.31;5032452;28;20049;-60
2023/03/08 01:20:38;;;;;;;17.40;12.45;;;;;;;4.35;70.44;98738.63;5032561;28;20050;-59
2023/03/08 01:23:07;;;;;;;15.05;11.45;;;;;;;4.37;70.09;98739.94;5030763;27;20056;-60
2023/03/08 01:25:34;;;;;;;17.50;12.73;;;;;;;4.33;70.13;98741.69;5032121;28;20045;-59
2023/03/08 01:28:02;;;;;;;15.25;11.73;;;;;;;4.31;70.68;98738.44;5032181;28;20049;-59
2023/03/08 01:30:29;;;;;;;15.80;12.13;;;;;;;4.33;69.95;98729.84;5032222;28;20415;-60
2023/03/08 01:32:56;;;;;;;16.45;11.45;;;;;;;4.19;70.37;98727.19;5032673;28;20054;-59
2023/03/08 01:35:23;;;;;;;15.48;11.80;;;;;;;4.24;70.97;98721.53;5031771;28;20057;-59
2023/03/08 01:37:52;;;;;;;13.77;11.32;;;;;;;4.31;71.08;98719.16;5030405;28;20056;-60
2023/03/08 01:40:22;;;;;;;17.17;13.20;;;;;;;4.35;70.08;98728.41;5031735;28;20510;-59
2023/03/08 01:42:49;;;;;;;;;;;;;;;4.41;70.70;98721.63;5032025;28;20057;-60
2023/03/08 01:46:01;;;;;;;13.70;10.90;;;;;;;4.39;69.93;98707.34;5031505;28;19929;-59
2023/03/08 01:48:32;;;;;;;16.05;11.73;;;;;;;4.46;69.91;98701.38;4986234;28;20407;-59
2023/03/08 01:51:02;;;;;;;16.52;12.05;;;;;;;4.45;70.37;98711.59;5031487;28;20512;-59
2023/03/08 01:53:30;;;;;;;15.90;12.55;;;;;;;4.44;69.75;98709.97;5029908;27;20491;-60
2023/03/08 01:55:58;;;;;;;16.73;11.65;;;;;;;4.43;70.10;98707.50;5031208;28;20419;-59
2023/03/08 01:58:26;;;;;;;14.63;10.88;;;;;;;4.41;70.18;98705.09;5031652;28;20065;-59
2023/03/08 02:00:53;;;;;;;18.02;11.60;;;;;;;4.33;69.40;98700.34;5031764;28;20068;-59
2023/03/08 02:03:20;;;;;;;15.75;12.50;;;;;;;4.33;69.40;98692.09;5031149;28;20049;-59
2023/03/08 02:05:50;;;;;;;15.20;11.90;;;;;;;4.33;70.73;98683.81;5031907;28;20389;-59
2023/03/08 02:08:17;;;;;;;14.80;11.35;;;;;;;4.29;70.72;98677.31;5030196;28;20053;-59
2023/03/08 02:10:45;;;;;;;15.52;11.77;;;;;;;4.22;69.99;98686.03;5031522;28;20411;-60
2023/03/08 02:13:14;;;;;;;16.17;11.85;;;;;;;4.28;69.80;98678.41;5029578;28;20057;-59
2023/03/08 02:15:41;;;;;;;14.85;10.77;;;;;;;4.29;70.82;98677.31;5031559;28;20064;-59
2023/03/08 02:18:09;;;;;;;17.13;11.77;;;;;;;4.30;69.86;98667.88;5031846;28;20384;-59
2023/03/08 02:20:38;;;;;;;14.00;11.10;;;;;;;4.37;71.08;98668.25;5031453;28;20065;-59
2023/03/08 02:23:12;;;;;;;14.80;11.57;;;;;;;4.40;70.82;98670.38;5030412;27;20053;-60
2023/03/08 02:25:40;;;;;;;15.48;10.82;;;;;;;4.44;70.66;98665.84;5031877;28;20057;-60
2023/03/08 02:28:09;;;;;;;15.23;11.40;;;;;;;4.47;70.88;98664.41;5031497;28;20053;-59
2023/03/08 02:30:38;;;;;;;14.20;11.68;;;;;;;4.47;70.92;98659.72;5020453;28;20054;-60
2023/03/08 02:33:05;;;;;;;14.65;10.65;;;;;;;4.44;69.81;98657.59;5025526;28;20401;-59
2023/03/08 02:35:32;;;;;;;15.57;11.25;;;;;;;4.39;69.52;98649.47;5030844;28;20045;-60
2023/03/08 02:38:00;;;;;;;13.65;10.80;;;;;;;4.47;70.39;98648.69;5029713;27;20046;-59
2023/03/08 02:40:28;;;;;;;13.68;10.77;;;;;;;4.40;70.15;98642.00;5031299;28;20069;-60
2023/03/08 02:42:55;;;;;;;12.73;9.90;;;;;;;4.22;69.63;98635.59;5030939;28;20396;-59
2023/03/08 02:45:23;;;;;;;14.05;10.43;;;;;;;4.33;70.09;98631.44;5030538;28;20052;-59
2023/03/08 02:47:51;;;;;;;15.95;11.95;;;;;;;4.29;69.29;98633.22;5027704;28;20064;-59
2023/03/08 02:50:18;;;;;;;13.80;10.88;;;;;;;4.14;70.41;98639.16;5030290;28;20057;-59
2023/03/08 02:52:45;;;;;;;14.52;10.95;;;;;;;4.11;70.64;98637.00;5029976;27;20050;-60
2023/03/08 02:55:12;;;;;;;12.55;10.25;;;;;;;3.96;70.34;98639.03;5031578;28;20403;-59
2023/03/08 02:57:41;;;;;;;12.32;9.63;;;;;;;4.10;69.42;98632.66;5030821;28;20064;-59
2023/03/08 03:00:10;;;;;;;13.73;10.15;;;;;;;3.98;70.65;98636.78;5029178;28;20053;-60
2023/03/08 03:02:37;;;;;;;15.40;11.38;;;;;;;3.95;69.82;98637.44;5030202;28;20058;-60
2023/03/08 03:05:10;;;;;;;15.02;10.68;;;;;;;3.89;69.55;98624.13;5030942;28;20049;-60
2023/03/08 03:07:38;;;;;;;14.05;11.23;;;;;;;3.84;69.49;98627.78;5011606;28;20058;-60
2023/03/08 03:10:07;;;;;;;14.88;10.52;;;;;;;3.78;70.66;98632.63;5028443;28;20061;-59
2023/03/08 03:12:34;;;;;;;15.40;10.98;;;;;;;3.71;70.30;98636.94;5030213;28;20139;-60
2023/03/08 03:15:03;;;;;;;13.70;11.00;;;;;;;3.65;70.57;98636.25;5030050;28;20048;-60
2023/03/08 03:17:33;;;;;;;14.25;10.90;;;;;;;3.72;70.94;98622.06;5030792;28;20053;-60
2023/03/08 03:20:00;;;;;;;15.88;11.57;;;;;;;3.80;70.46;98629.53;5030886;28;20061;-60
2023/03/08 03:22:29;;;;;;;16.08;11.55;;;;;;;3.89;70.65;98626.88;5030349;28;20053;-59
2023/03/08 03:24:56;;;;;;;16.30;11.82;;;;;;;3.95;70.19;98620.06;5028133;28;20090;-59
2023/03/08 03:27:26;;;;;;;13.65;10.57;;;;;;;3.89;69.98;98622.16;5030294;28;20385;-59
2023/03/08 03:29:53;;;;;;;16.13;11.85;;;;;;;3.88;71.14;98623.28;5030231;28;20392;-59
2023/03/08 03:32:27;;;;;;;15.30;11.50;;;;;;;3.85;70.23;98632.19;5029883;28;20054;-60
2023/03/08 03:34:54;;;;;;;15.82;11.23;;;;;;;3.92;69.68;98627.03;5030390;28;20049;-60
2023/03/08 03:37:21;;;;;;;14.40;11.15;;;;;;;3.96;70.02;98622.50;5030093;28;20518;-60
2023/03/08 03:39:49;;;;;;;17.48;11.68;;;;;;;3.97;69.90;98615.06;5030220;28;20050;-59
2023/03/08 03:42:16;;;;;;;16.50;11.85;;;;;;;3.89;70.31;98605.63;5029880;28;20061;-59
2023/03/08 03:44:45;;;;;;;16.67;11.57;;;;;;;3.97;70.11;98615.88;5029532;28;20049;-59
2023/03/08 03:47:13;;;;;;;15.15;10.93;;;;;;;4.02;69.10;98610.22;5029919;28;20052;-59
2023/03/08 03:49:41;;;;;;;16.98;11.10;;;;;;;3.92;68.83;98607.75;5030669;28;20049;-60
2023/03/08 03:52:09;;;;;;;14.32;10.95;;;;;;;3.98;68.67;98616.69;5030256;28;20077;-60
2023/03/08 03:54:36;;;;;;;14.98;11.25;;;;;;;4.01;69.45;98597.59;5029011;27;20057;-60
2023/03/08 03:57:04;;;;;;;15.23;11.27;;;;;;;4.02;68.86;98599.22;5030265;28;20050;-60
2023/03/08 03:59:32;;;;;;;16.00;11.23;;;;;;;4.09;68.59;98598.75;5030235;28;20131;-60
2023/03/08 04:02:00;;;;;;;16.77;11.15;;;;;;;4.09;68.83;98604.25;5029826;28;20060;-60
2023/03/08 04:04:27;;;;;;;14.40;10.77;;;;;;;4.09;68.86;98603.44;5029757;28;20058;-59
2023/03/08 04:06:55;;;;;;;13.70;10.30;;;;;;;3.93;67.88;98590.09;5030045;28;20050;-59
2023/03/08 04:09:23;;;;;;;13.88;10.27;;;;;;;4.06;69.09;98580.91;5029141;28;20053;-59
2023/03/08 04:11:50;;;;;;;13.68;10.43;;;;;;;4.09;69.16;98592.44;5029862;28;20057;-60
2023/03/08 04:14:17;;;;;;;15.68;10.75;;;;;;;4.19;68.80;98592.97;5027745;28;20064;-59
2023/03/08 04:16:44;;;;;;;14.32;10.50;;;;;;;4.16;69.32;98588.09;5029338;28;20046;-59
2023/03/08 04:19:13;;;;;;;14.88;10.60;;;;;;;4.02;68.92;98582.69;5029606;28;20049;-60
2023/03/08 04:21:40;;;;;;;13.48;9.43;;;;;;;4.19;68.74;98576.44;5029450;28;20053;-60
2023/03/08 04:24:09;;;;;;;15.65;10.65;;;;;;;4.26;68.44;98564.94;5028561;28;20065;-60
2023/03/08 04:26:36;;;;;;;15.00;10.70;;;;;;;4.36;68.48;98559.13;5029514;28;20053;-60
2023/03/08 04:29:05;;;;;;;13.65;9.93;;;;;;;4.38;68.55;98556.88;5029845;28;20482;-59
2023/03/08 04:31:35;;;;;;;15.13;10.80;;;;;;;4.45;67.52;98551.72;5028960;28;20060;-60
2023/03/08 04:34:03;;;;;;;13.90;9.70;;;;;;;4.44;68.26;98552.03;5029595;28;20392;-59
2023/03/08 04:36:31;;;;;;;14.05;9.23;;;;;;;4.46;67.34;98547.00;5029432;28;20057;-61
2023/03/08 04:38:59;;;;;;;13.40;10.02;;;;;;;4.50;67.26;98541.66;5026971;28;20057;-60
2023/03/08 04:41:27;;;;;;;12.30;9.52;;;;;;;4.56;67.82;98537.63;5028361;28;20064;-60
2023/03/08 04:43:56;;;;;;;15.70;9.65;;;;;;;4.58;67.56;98538.13;5029500;28;20056;-61
2023/03/08 04:46:25;;;;;;;13.67;10.50;;;;;;;4.60;67.81;98531.13;5030431;28;20053;-60
2023/03/08 04:48:54;;;;;;;14.63;10.25;;;;;;;4.59;67.44;98539.72;5029574;28;20053;-60
2023/03/08 04:51:23;;;;;;;12.25;9.05;;;;;;;4.59;67.58;98532.25;5029077;28;20522;-59
2023/03/08 04:53:51;;;;;;;13.98;9.35;;;;;;;4.65;67.48;98530.16;5027906;28;20050;-59
2023/03/08 04:56:18;;;;;;;13.88;9.52;;;;;;;4.66;66.54;98534.53;5029320;28;20057;-59
2023/03/08 04:58:47;;;;;;;12.90;10.02;;;;;;;4.66;66.55;98529.00;5028641;28;20080;-60
2023/03/08 05:01:18;;;;;;;15.23;10.37;;;;;;;4.67;67.45;98520.44;5028812;28;20057;-60
2023/03/08 05:03:48;;;;;;;19.67;11.43;;;;;;;4.61;66.97;98527.22;5029478;28;20467;-59
2023/03/08 05:06:15;;;;;;;14.57;9.70;;;;;;;4.62;66.80;98514.25;5028439;28;20057;-60
2023/03/08 05:08:46;;;;;;;13.80;9.75;;;;;;;4.56;66.60;98512.81;5026926;28;20053;-60
2023/03/08 05:11:18;;;;;;;14.32;9.70;;;;;;;4.56;67.09;98510.06;5027525;28;20526;-59
2023/03/08 05:13:47;;;;;;;13.50;9.60;;;;;;;4.59;67.47;98504.69;5028777;28;20053;-60
2023/03/08 05:16:15;;;;;;;14.85;9.95;;;;;;;4.67;67.25;98498.38;5028743;28;20045;-60
2023/03/08 05:18:42;;;;;;;14.43;10.10;;;;;;;4.74;66.91;98491.56;5042212;28;20052;-60
2023/03/08 05:21:12;;;;;;;17.50;11.32;;;;;;;4.65;66.72;98494.31;5045902;28;20056;-60
2023/03/08 05:23:39;;;;;;;13.63;9.80;;;;;;;4.66;66.68;98490.41;5035178;28;20420;-60
2023/03/08 05:26:08;;;;;;;11.73;8.68;;;;;;;4.59;66.40;98492.84;5030483;28;20046;-59
2023/03/08 05:28:36;;;;;;;13.93;8.93;;;;;;;4.65;65.99;98483.28;5032252;28;20056;-59
2023/03/08 05:31:08;;;;;;;12.80;9.23;;;;;;;4.62;66.06;98483.91;5032343;28;20049;-59
2023/03/08 05:33:35;;;;;;;13.98;9.55;;;;;;;4.66;65.97;98482.13;5032049;28;20045;-59
2023/03/08 05:36:04;;;;;;;12.02;8.50;;;;;;;4.67;65.30;98479.06;5031703;28;20050;-60
2023/03/08 05:38:31;;;;;;;12.55;8.25;;;;;;;4.63;66.20;98483.59;5030338;28;20139;-59
2023/03/08 05:41:00;;;;;;;10.93;7.68;;;;;;;4.62;65.66;98479.22;5031677;28;20061;-59
2023/03/08 05:43:27;;;;;;;11.85;9.02;;;;;;;4.62;64.95;98476.47;5031425;28;20061;-59
2023/03/08 05:45:57;;;;;;;10.85;7.18;;;;;;;4.41;65.80;98481.81;5031373;28;20049;-59
2023/03/08 05:48:25;;;;;;;9.05;6.68;;;;;;;4.38;64.95;98476.94;5031436;28;20430;-58
2023/03/08 05:50:53;;;;;;;10.30;6.95;;;;;;;4.23;65.77;98471.91;5029874;28;20076;-59
2023/03/08 05:53:21;;;;;;;9.57;6.50;;;;;;;4.13;65.07;98469.44;5031182;28;20479;-60
2023/03/08 05:55:48;;;;;;;8.02;5.45;;;;;;;4.01;64.86;98465.38;5031612;28;20072;-60
2023/03/08 05:58:16;;;;;;;8.93;6.18;;;;;;;3.94;66.04;98461.47;5032379;28;20052;-59
2023/03/08 06:00:44;;;;;;;7.65;5.20;;;;;;;3.79;65.17;98454.44;5032331;28;20072;-59
2023/03/08 06:03:11;;;;;;;8.68;5.68;;;;;;;3.74;66.50;98446.31;5030858;28;20491;-59
2023/03/08 06:05:39;;;;;;;8.30;5.18;;;;;;;3.68;65.46;98440.16;5031876;28;20052;-59
2023/03/08 06:08:07;;;;;;;7.47;4.90;;;;;;;3.54;65.95;98432.00;5028973;27;20060;-58
2023/03/08 06:10:34;;;;;;;7.53;5.32;;;;;;;3.49;67.13;98437.66;5030902;28;20058;-59
2023/03/08 06:13:02;;;;;;;6.18;4.43;;;;;;;3.48;66.91;98438.78;5027452;28;20061;-60
2023/03/08 06:15:29;;;;;;;7.60;4.40;;;;;;;3.34;67.65;98436.16;5030567;28;20054;-61
2023/03/08 06:17:56;;;;;;;6.28;3.90;;;;;;;3.30;67.45;98431.56;5030303;28;20069;-61
2023/03/08 06:20:24;;;;;;;7.78;4.50;;;;;;;3.27;67.66;98427.53;5026174;28;20484;-60
2023/03/08 06:22:52;;;;;;;5.97;4.00;;;;;;;3.28;67.26;98428.34;5029941;27;20495;-58
2023/03/08 06:25:19;;;;;;;6.80;3.78;;;;;;;3.03;67.31;98422.41;5035033;27;20056;-60
2023/03/08 06:27:46;;;;;;;7.22;3.50;;;;;;;2.96;67.25;98428.34;5025008;28;20391;-60
2023/03/08 06:30:14;;;;;;;5.18;3.10;;;;;;;2.88;68.07;98429.09;5028612;28;20064;-60
2023/03/08 06:32:41;;;;;;;3.72;2.38;;;;;;;2.91;68.82;98422.16;5027716;28;20068;-59
2023/03/08 06:35:09;;;;;;;4.90;2.08;;;;;;;2.92;67.97;98423.78;5029056;28;20411;-59
2023/03/08 06:37:36;;;;;;;3.63;2.28;;;;;;;2.82;67.30;98422.91;5029529;28;20049;-59
2023/03/08 06:40:08;;;;;;;4.65;2.80;;;;;;;2.86;67.57;98412.13;5021914;28;20056;-59
2023/03/08 06:42:35;;;;;;;9.60;4.07;;;;;;;2.99;68.74;98410.41;5026896;28;20053;-59
2023/03/08 06:45:02;;;;;;;4.97;3.10;;;;;;;3.02;68.41;98404.25;5027185;27;20054;-60
2023/03/08 06:47:30;;;;;;;4.85;2.70;;;;;;;2.95;67.79;98398.41;5027893;28;20100;-59
2023/03/08 06:49:57;;;;;;;4.45;2.97;;;;;;;2.94;68.72;98394.03;5030641;28;20068;-59
2023/03/08 06:52:24;;;;;;;3.63;2.03;;;;;;;2.90;67.82;98387.53;5028713;27;20061;-60
2023/03/08 06:54:51;;;;;;;3.88;2.25;;;;;;;2.90;67.82;98387.53;5030267;28;20083;-60
2023/03/08 06:57:20;;;;;;;5.93;2.38;;;;;;;2.89;68.76;98372.97;5030604;28;20050;-60
2023/03/08 06:59:47;;;;;;;3.97;2.20;;;;;;;2.89;68.85;98369.41;5029650;28;20053;-59
2023/03/08 07:02:14;;;;;;;4.47;2.28;;;;;;;2.90;68.50;98365.53;5029569;28;20057;-60
2023/03/08 07:04:42;;;;;;;4.65;2.63;;;;;;;2.88;69.95;98354.88;5030593;28;20140;-60
2023/03/08 07:07:09;;;;;;;4.53;2.28;;;;;;;2.97;69.05;98358.47;5029041;28;20057;-59
2023/03/08 07:09:36;;;;;;;4.68;2.90;;;;;;;2.96;68.97;98356.03;5030239;27;20076;-59
2023/03/08 07:12:04;;;;;;;3.80;1.95;;;;;;;3.08;68.67;98361.75;5025767;28;20396;-59
2023/03/08 07:14:32;;;;;;;2.88;2.10;;;;;;;2.99;68.92;98355.41;5028783;27;20053;-60
2023/03/08 07:17:00;;;;;;;3.95;2.40;;;;;;;3.08;68.36;98353.50;5028944;28;20045;-59
2023/03/08 07:19:27;;;;;;;3.63;2.10;;;;;;;3.10;69.12;98359.47;5030169;28;20053;-60
2023/03/08 07:21:54;;;;;;;3.60;2.10;;;;;;;3.06;68.61;98347.50;5029036;28;20514;-59
2023/03/08 07:24:21;;;;;;;3.22;2.13;;;;;;;3.13;69.63;98347.03;5026987;28;20070;-60
2023/03/08 07:26:50;;;;;;;3.58;2.15;;;;;;;3.23;67.83;98338.50;5030139;28;20064;-60
2023/03/08 07:29:17;;;;;;;4.65;2.05;;;;;;;3.16;68.15;98340.91;5026520;28;20060;-59
2023/03/08 07:31:46;;;;;;;2.75;1.60;;;;;;;3.16;68.25;98330.72;5029042;28;20058;-59
2023/03/08 07:34:13;;;;;;;2.97;1.80;;;;;;;3.16;68.45;98336.22;5028513;28;20052;-62
2023/03/08 07:36:40;;;;;;;4.38;2.08;;;;;;;3.27;68.79;98331.22;5028831;28;20064;-59
2023/03/08 07:39:07;;;;;;;2.67;1.63;;;;;;;3.38;69.36;98331.75;5028155;28;20046;-60
2023/03/08 07:41:35;;;;;;;2.47;1.55;;;;;;;3.43;67.88;98328.84;5028753;28;20057;-59
2023/03/08 07:44:03;;;;;;;3.33;1.80;;;;;;;3.41;68.90;98320.91;5027466;28;20057;-58
2023/03/08 07:46:30;;;;;;;2.83;1.73;;;;;;;3.51;68.36;98324.50;5028220;28;20084;-59
2023/03/08 07:48:59;;;;;;;3.40;2.30;;;;;;;3.57;68.85;98321.28;5028509;28;20053;-59
2023/03/08 07:51:26;;;;;;;2.90;2.00;;;;;;;3.68;69.04;98310.78;5026487;28;20423;-59
2023/03/08 07:53:54;;;;;;;3.38;1.80;;;;;;;3.76;69.11;98312.72;5023442;28;21437;-59
2023/03/08 07:56:21;;;;;;;2.80;1.70;;;;;;;3.84;67.69;98311.09;5025888;28;20053;-62
2023/03/08 07:58:48;;;;;;;3.67;1.70;;;;;;;3.88;67.86;98305.75;5018016;28;20400;-62
2023/03/08 08:01:16;;;;;;;3.30;1.83;;;;;;;3.88;67.95;98312.06;5034198;27;20053;-62
2023/03/08 08:03:43;;;;;;;2.90;1.90;;;;;;;3.81;67.51;98301.53;5036706;28;20487;-63
2023/03/08 08:06:12;;;;;;;2.58;1.60;;;;;;;3.76;67.58;98293.47;5023993;28;20062;-63
2023/03/08 08:08:39;;;;;;;3.67;2.00;;;;;;;3.75;67.67;98293.78;5022295;28;20053;-62
2023/03/08 08:11:13;;;;;;;2.45;1.33;;;;;;;3.96;68.08;98288.44;5019428;28;20411;-63
2023/03/08 08:13:41;;;;;;;3.08;1.55;;;;;;;4.09;68.53;98278.38;5024714;28;20041;-63
2023/03/08 08:16:09;;;;;;;2.30;1.60;;;;;;;4.23;68.63;98273.50;5024339;28;20466;-63
2023/03/08 08:18:36;;;;;;;3.72;2.00;;;;;;;4.30;68.57;98268.28;5022980;28;20425;-63
2023/03/08 08:21:05;;;;;;;4.13;1.73;;;;;;;4.37;67.68;98257.59;5020454;28;20053;-63
2023/03/08 08:23:34;;;;;;;2.63;1.80;;;;;;;4.53;68.26;98259.81;5023056;28;20045;-63
2023/03/08 08:26:06;;;;;;;3.27;1.80;;;;;;;4.61;67.97;98250.69;5023553;28;20992;-63
2023/03/08 08:28:34;;;;;;;3.13;2.00;;;;;;;4.72;67.86;98256.66;5022674;28;20196;-63
2023/03/08 08:31:04;;;;;;;3.17;2.20;;;;;;;4.84;67.47;98249.31;5023563;28;20060;-63
2023/03/08 08:33:32;;;;;;;3.60;2.40;;;;;;;4.91;67.02;98245.22;5022669;28;20057;-62
2023/03/08 08:36:00;;;;;;;4.90;2.92;;;;;;;4.89;66.57;98242.78;5022191;28;20061;-62
2023/03/08 08:38:27;;;;;;;3.45;2.35;;;;;;;4.92;66.50;98242.16;5023190;28;20499;-62
2023/03/08 08:40:59;;;;;;;4.32;2.65;;;;;;;5.02;66.42;98239.00;5023175;28;20072;-62
2023/03/08 08:43:26;;;;;;;2.95;2.20;;;;;;;5.01;66.04;98233.81;5023335;28;20503;-62
2023/03/08 08:45:56;;;;;;;2.70;1.85;;;;;;;5.06;65.41;98230.84;5022696;28;20412;-62
2023/03/08 08:48:23;;;;;;;3.70;1.95;;;;;;;4.97;64.68;98224.59;5022260;28;20050;-62
2023/03/08 08:50:51;;;;;;;2.75;1.88;;;;;;;4.93;65.71;98218.91;5019794;28;20100;-62
2023/03/08 08:53:19;;;;;;;3.05;1.70;;;;;;;4.90;64.24;98216.03;5019046;28;20048;-61
2023/03/08 08:55:46;;;;;;;3.45;1.73;;;;;;;4.89;64.63;98204.19;5021391;28;20396;-61
2023/03/08 08:58:15;;;;;;;2.22;1.50;;;;;;;4.90;64.47;98207.78;5035502;28;20058;-62
2023/03/08 09:00:42;;;;;;;1.92;1.40;;;;;;;4.94;65.20;98200.44;5022200;28;20060;-61
2023/03/08 09:03:10;;;;;;;2.40;1.63;;;;;;;4.98;65.17;98209.66;5022384;28;20069;-62
2023/03/08 09:05:39;;;;;;;2.40;1.60;;;;;;;4.97;65.32;98188.72;5023143;28;20061;-63
2023/03/08 09:08:07;;;;;;;2.55;1.50;;;;;;;5.00;64.64;98179.81;5022590;28;20060;-63
2023/03/08 09:10:36;;;;;;;1.98;1.60;;;;;;;5.08;64.61;98178.91;5019674;27;20054;-63
2023/03/08 09:13:04;;;;;;;2.80;1.70;;;;;;;5.11;64.86;98182.97;5038724;28;20048;-63
2023/03/08 09:15:34;;;;;;;2.40;2.00;;;;;;;5.27;65.32;98181.22;5026943;28;20484;-63
2023/03/08 09:18:01;;;;;;;3.20;2.30;;;;;;;5.41;64.93;98170.72;5022717;28;20052;-63
2023/03/08 09:20:29;;;;;;;3.08;2.35;;;;;;;5.50;64.26;98162.38;5037700;28;20057;-63
2023/03/08 09:22:56;;;;;;;3.13;2.35;;;;;;;5.61;64.15;98166.34;5020402;28;20057;-62
2023/03/08 09:25:24;;;;;;;2.72;2.00;;;;;;;5.72;63.73;98163.97;5023440;28;20060;-62
2023/03/08 09:27:51;;;;;;;3.63;2.72;;;;;;;5.85;64.07;98167.59;5022615;28;20061;-62
2023/03/08 09:30:19;;;;;;;4.03;2.45;;;;;;;5.84;63.47;98163.22;5022683;28;20156;-63
2023/03/08 09:32:47;;;;;;;3.40;2.92;;;;;;;5.88;62.95;98148.38;5021089;28;20064;-63
2023/03/08 09:35:15;;;;;;;4.38;2.50;;;;;;;5.83;62.87;98151.34;5026130;28;20068;-62
2023/03/08 09:37:42;;;;;;;3.15;2.35;;;;;;;5.89;63.32;98144.47;5023216;28;20065;-63
2023/03/08 09:40:19;;;;;;;2.78;2.13;;;;;;;5.99;62.82;98143.25;5024177;28;20530;-63
2023/03/08 09:42:47;;;;;;;2.72;1.88;;;;;;;6.01;62.88;98138.22;5021719;28;20056;-63
2023/03/08 09:45:25;;;;;;;2.08;1.75;;;;;;;5.99;63.01;98137.75;5024668;28;20057;-63
2023/03/08 09:48:03;;;;;;;2.40;1.73;;;;;;;6.10;62.78;98133.38;5025182;28;20064;-62
2023/03/08 09:50:38;;;;;;;2.10;1.67;;;;;;;6.10;62.47;98138.91;5024206;28;20054;-62
2023/03/08 09:53:14;;;;;;;2.17;1.30;;;;;;;6.20;62.31;98131.34;5020326;28;20064;-62
2023/03/08 09:55:47;;;;;;;1.80;1.10;;;;;;;6.28;61.46;98127.66;5026783;28;20060;-62
2023/03/08 09:58:22;;;;;;;1.40;1.10;;;;;;;6.32;61.47;98131.38;5022700;28;20052;-62
2023/03/08 10:00:50;;;;;;;2.10;1.40;;;;;;;6.42;61.63;98127.31;5033574;27;20057;-62
2023/03/08 10:03:44;;;;;;;2.17;1.60;;;;;;;6.58;61.73;98130.22;5023948;28;20103;-63
2023/03/08 10:06:16;;;;;;;2.00;1.40;;;;;;;6.74;61.61;98127.56;5024848;28;20053;-62
2023/03/08 10:08:53;;;;;;;1.95;1.38;;;;;;;6.82;61.47;98129.41;5039266;27;20053;-63
2023/03/08 10:11:28;;;;;;;2.20;1.73;;;;;;;6.61;61.16;98124.78;5022662;27;20057;-63
2023/03/08 10:13:58;;;;;;;2.20;1.65;;;;;;;6.85;60.99;98112.91;5023163;28;20068;-63
2023/03/08 10:16:28;;;;;;;1.98;1.38;;;;;;;6.98;60.37;98110.13;5024741;28;20597;-63
2023/03/08 10:18:58;;;;;;;;;;;;;;;6.69;59.10;98103.69;5023970;28;20049;-63
2023/03/08 10:21:28;;;;;;;1.60;1.13;;;;;;;6.70;60.46;98097.03;5021216;27;20343;-63
2023/03/08 10:24:00;;;;;;;1.70;1.20;;;;;;;6.78;61.42;98089.75;5021260;28;20057;-63
2023/03/08 10:26:28;;;;;;;2.45;1.30;;;;;;;6.85;61.39;98088.00;5031453;28;20414;-63
2023/03/08 10:28:55;;;;;;;1.65;1.30;;;;;;;6.94;61.49;98087.88;5034480;27;20054;-63
2023/03/08 10:31:24;;;;;;;2.00;1.25;;;;;;;7.15;60.57;98086.91;5023390;28;20058;-63
2023/03/08 10:34:11;;;;;;;1.88;1.20;;;;;;;7.16;59.55;98082.97;5020242;28;20064;-63
2023/03/08 10:36:48;;;;;;;1.60;1.20;;;;;;;7.21;60.04;98091.84;5022950;28;20065;-63
2023/03/08 10:39:16;;;;;;;2.17;1.40;;;;;;;7.27;59.46;98086.88;5024038;28;20053;-63
2023/03/08 10:41:45;;;;;;;2.63;1.45;;;;;;;7.26;58.27;98088.81;5022037;28;20510;-63
2023/03/08 10:44:15;;;;;;;2.15;1.58;;;;;;;7.35;58.67;98094.25;5023358;28;20293;-63
2023/03/08 10:46:46;;;;;;;;;;;;;;;7.58;58.45;98082.59;5027318;28;20053;-63
2023/03/08 10:49:18;;;;;;;2.83;2.10;;;;;;;7.67;59.48;98072.97;5027425;28;19925;-63
2023/03/08 10:51:53;;;;;;;2.00;1.50;;;;;;;7.77;58.42;98073.59;5029063;27;20053;-62
2023/03/08 10:54:21;;;;;;;1.95;1.40;;;;;;;7.61;57.69;98062.50;5029656;28;20045;-63
2023/03/08 10:56:53;;;;;;;2.50;1.60;;;;;;;7.77;58.09;98057.81;5031075;28;20072;-63
2023/03/08 10:59:27;;;;;;;2.30;2.00;;;;;;;7.98;57.58;98057.56;5025578;28;20060;-63
2023/03/08 11:01:57;;;;;;;2.08;1.35;;;;;;;7.96;57.21;98043.25;5029296;28;20057;-63
2023/03/08 11:04:29;;;;;;;1.50;1.38;;;;;;;8.07;56.58;98036.00;5027762;28;20060;-63
2023/03/08 11:06:56;;;;;;;1.92;1.30;;;;;;;8.27;56.81;98025.81;5029508;27;20060;-63
2023/03/08 11:09:26;;;;;;;2.05;1.60;;;;;;;8.74;55.63;98027.69;5028682;28;20056;-63
2023/03/08 11:11:55;;;;;;;3.08;1.30;;;;;;;8.97;55.48;98040.09;5030607;28;20084;-63
2023/03/08 11:14:23;;;;;;;1.95;1.40;;;;;;;9.24;55.11;98032.72;5028110;28;20403;-63
2023/03/08 11:17:07;;;;;;;1.90;1.38;;;;;;;9.42;53.74;98031.09;5028311;28;20446;-63
2023/03/08 11:20:09;;;;;;;1.90;1.48;;;;;;;9.63;52.74;98029.91;5025708;27;20050;-58
2023/03/08 11:22:48;;;;;;;1.98;1.30;;;;;;;9.73;51.76;98026.53;5025485;28;20057;-58
2023/03/08 11:25:25;;;;;;;1.52;1.30;;;;;;;9.93;53.27;98025.31;5019465;28;20053;-57
2023/03/08 11:28:07;;;;;;;2.78;1.60;;;;;;;10.03;52.20;98035.00;5021316;27;20049;-55
2023/03/08 11:30:46;;;;;;;3.35;2.10;;;;;;;10.01;52.39;98042.91;5022861;28;20050;-59
2023/03/08 11:33:46;;;;;;;3.95;2.63;;;;;;;9.94;52.88;98048.34;5028652;28;20506;-58
2023/03/08 11:36:21;;;;;;;2.63;1.92;;;;;;;9.78;53.64;98029.00;5023510;28;20138;-59
2023/03/08 11:38:57;;;;;;;2.78;2.15;;;;;;;9.84;52.72;98023.94;5026328;28;20388;-58
2023/03/08 11:41:33;;;;;;;5.25;3.10;;;;;;;9.83;52.46;98027.91;5029775;28;20403;-58
2023/03/08 11:44:17;;;;;;;3.05;2.03;;;;;;;9.73;51.91;98032.09;5029766;28;20484;-58